Time;durP1;ratioP1;P1;durP2;ratioP2;P2;SDS_P1;SDS_P2;PMS_P1;PMS_P2;Temp;Humidity;BMP_temperature;BMP_pressure;BME280_temperature;BME280_humidity;BME280_pressure;Samples;Min_cycle;Max_cycle;Signal;HPM_P1;HPM_P2
2023/10/01 00:02:11;;;;;;;;;;;;;;;;;;6130984;28;20028;-78
2023/10/01 00:05:12;;;;;;;9.98;3.70;;;;;;;;;;6128236;28;20022;-80
2023/10/01 00:08:14;;;;;;;8.32;4.28;;;;;;;;;;6171805;23;20078;-79
2023/10/01 00:11:16;;;;;;;7.10;3.63;;;;;;;;;;6156710;28;20047;-80
2023/10/01 00:14:19;;;;;;;6.70;3.63;;;;;;;;;;6150107;28;20066;-80
2023/10/01 00:17:29;;;;;;;6.20;3.58;;;;;;;;;;6144661;28;20054;-79
2023/10/01 00:20:33;;;;;;;5.13;3.00;;;;;;;;;;6160632;28;20050;-80
2023/10/01 00:23:35;;;;;;;5.82;4.28;;;;;;;;;;6155146;28;20061;-80
2023/10/01 00:26:37;;;;;;;5.83;3.70;;;;;;;;;;6149124;28;20520;-80
2023/10/01 00:29:39;;;;;;;6.75;3.63;;;;;;;;;;6164222;28;20699;-79
2023/10/01 00:32:41;;;;;;;8.02;3.42;;;;;;;;;;6162123;28;20058;-79
2023/10/01 00:35:43;;;;;;;5.40;3.43;;;;;;;;;;6158779;28;20435;-79
2023/10/01 00:38:45;;;;;;;6.30;3.28;;;;;;;;;;6154633;28;20051;-80
2023/10/01 00:41:48;;;;;;;6.80;3.70;;;;;;;;;;6148134;28;20047;-80
2023/10/01 00:44:50;;;;;;;6.55;3.22;;;;;;;;;;6156502;28;20051;-80
2023/10/01 00:47:51;;;;;;;6.45;3.63;;;;;;;;;;6149028;28;20043;-80
2023/10/01 00:50:54;;;;;;;7.00;4.13;;;;;;;;;;6151701;28;20039;-79
2023/10/01 00:53:56;;;;;;;6.88;3.55;;;;;;;;;;6153970;28;20046;-80
2023/10/01 00:56:58;;;;;;;7.00;3.90;;;;;;;;;;6124860;28;22671;-79
2023/10/01 00:59:59;;;;;;;10.10;4.25;;;;;;;;;;6165586;28;20055;-80
2023/10/01 01:06:17;;;;;;;5.75;3.70;;;;;;;;;;6157723;28;20433;-80
2023/10/01 01:09:20;;;;;;;10.85;4.30;;;;;;;;;;6170939;28;20042;-80
2023/10/01 01:12:22;;;;;;;8.90;3.90;;;;;;;;;;6144721;28;20132;-79
2023/10/01 01:15:23;;;;;;;6.78;4.05;;;;;;;;;;6171694;28;20047;-80
2023/10/01 01:18:26;;;;;;;10.43;5.15;;;;;;;;;;6170825;28;20054;-80
2023/10/01 01:21:30;;;;;;;9.23;4.18;;;;;;;;;;6153221;28;20501;-79
2023/10/01 01:24:33;;;;;;;8.63;4.55;;;;;;;;;;6146067;28;20440;-79
2023/10/01 01:27:35;;;;;;;9.88;4.65;;;;;;;;;;6148788;28;20042;-79
2023/10/01 01:30:41;;;;;;;7.95;3.92;;;;;;;;;;6126078;28;20058;-79
2023/10/01 01:33:52;;;;;;;6.53;4.03;;;;;;;;;;6147529;28;20058;-79
2023/10/01 01:36:55;;;;;;;7.63;3.95;;;;;;;;;;6135215;28;20039;-80
2023/10/01 01:39:57;;;;;;;8.15;4.22;;;;;;;;;;6141048;28;20070;-79
2023/10/01 01:43:04;;;;;;;7.47;3.80;;;;;;;;;;6142449;28;20050;-80
2023/10/01 01:46:11;;;;;;;7.07;3.95;;;;;;;;;;6143978;28;20047;-80
2023/10/01 01:49:18;;;;;;;4.80;3.60;;;;;;;;;;6150068;28;20043;-79
2023/10/01 01:52:21;;;;;;;6.03;3.58;;;;;;;;;;6146226;28;20179;-79
2023/10/01 01:55:27;;;;;;;6.43;3.65;;;;;;;;;;6162143;28;20050;-79
2023/10/01 01:58:32;;;;;;;8.27;3.90;;;;;;;;;;6156320;28;20051;-80
2023/10/01 02:01:35;;;;;;;9.57;4.68;;;;;;;;;;6130525;28;20051;-79
2023/10/01 02:04:58;;;;;;;;;;;;;;;;;;6146637;28;20047;-80
2023/10/01 02:08:08;;;;;;;10.55;4.13;;;;;;;;;;6147027;28;19926;-80
2023/10/01 02:11:10;;;;;;;8.02;4.47;;;;;;;;;;6151910;28;20051;-80
2023/10/01 02:14:29;;;;;;;7.90;4.15;;;;;;;;;;6158667;28;20054;-80
2023/10/01 02:17:31;;;;;;;8.43;4.40;;;;;;;;;;6128411;28;20047;-80
2023/10/01 02:20:33;;;;;;;8.57;4.32;;;;;;;;;;6151572;28;20103;-80
2023/10/01 02:23:36;;;;;;;9.80;4.72;;;;;;;;;;6160866;28;20046;-80
2023/10/01 02:26:41;;;;;;;8.23;4.63;;;;;;;;;;6138566;28;20429;-80
2023/10/01 02:30:09;;;;;;;8.50;4.55;;;;;;;;;;6167445;28;20043;-79
2023/10/01 02:33:17;;;;;;;9.23;4.80;;;;;;;;;;6163877;28;20051;-80
2023/10/01 02:36:22;;;;;;;5.88;3.38;;;;;;;;;;6154789;28;20051;-80
2023/10/01 02:39:27;;;;;;;7.13;3.85;;;;;;;;;;6156756;28;20047;-80
2023/10/01 02:42:31;;;;;;;8.30;3.80;;;;;;;;;;6164149;28;20050;-80
2023/10/01 02:45:34;;;;;;;5.50;3.38;;;;;;;;;;6170301;28;20594;-79
2023/10/01 02:48:40;;;;;;;8.52;4.10;;;;;;;;;;6157723;28;20047;-79
2023/10/01 02:51:41;;;;;;;8.63;3.63;;;;;;;;;;6171320;28;20047;-80
2023/10/01 02:54:44;;;;;;;9.32;4.70;;;;;;;;;;6152887;28;20453;-80
2023/10/01 02:57:50;;;;;;;13.52;5.90;;;;;;;;;;6151938;28;20513;-79
2023/10/01 03:00:53;;;;;;;13.73;5.80;;;;;;;;;;6165146;28;20038;-80
2023/10/01 03:03:55;;;;;;;14.15;6.63;;;;;;;;;;6139459;28;20058;-80
2023/10/01 03:06:57;;;;;;;10.73;5.22;;;;;;;;;;6173110;28;20047;-79
2023/10/01 03:10:00;;;;;;;12.18;5.63;;;;;;;;;;6149746;28;20051;-79
2023/10/01 03:13:15;;;;;;;12.20;5.38;;;;;;;;;;6148413;28;20050;-79
2023/10/01 03:19:40;;;;;;;9.23;4.78;;;;;;;;;;6145167;28;20366;-80
2023/10/01 03:22:43;;;;;;;10.77;5.35;;;;;;;;;;6156592;28;20054;-79
2023/10/01 03:26:04;;;;;;;12.77;5.45;;;;;;;;;;6154079;28;20051;-79
2023/10/01 03:29:17;;;;;;;12.30;5.47;;;;;;;;;;6152262;28;20062;-79
2023/10/01 03:32:29;;;;;;;14.15;5.97;;;;;;;;;;6151983;28;20047;-79
2023/10/01 03:35:30;;;;;;;13.73;5.97;;;;;;;;;;6160463;28;20505;-80
2023/10/01 03:38:32;;;;;;;10.10;5.30;;;;;;;;;;6156659;28;20122;-80
2023/10/01 03:41:52;;;;;;;12.25;5.93;;;;;;;;;;6153027;28;20050;-79
2023/10/01 03:45:25;;;;;;;18.80;6.53;;;;;;;;;;6137656;28;20047;-79
2023/10/01 03:48:21;;;;;;;18.48;7.07;;;;;;;;;;6152694;28;20525;-79
2023/10/01 04:04:28;;;;;;;23.35;8.18;;;;;;;;;;6159878;28;20039;-79
2023/10/01 04:07:40;;;;;;;19.08;7.80;;;;;;;;;;6151663;28;20039;-80
2023/10/01 04:10:47;;;;;;;17.20;7.45;;;;;;;;;;6154609;28;20524;-80
2023/10/01 04:14:07;;;;;;;17.50;7.50;;;;;;;;;;6148504;28;20058;-79
2023/10/01 04:17:13;;;;;;;18.83;7.55;;;;;;;;;;6153846;28;20505;-80
2023/10/01 04:20:19;;;;;;;19.08;7.70;;;;;;;;;;6168662;28;20043;-80
2023/10/01 04:23:29;;;;;;;25.38;8.50;;;;;;;;;;6132962;28;20395;-80
2023/10/01 04:26:32;;;;;;;23.63;7.75;;;;;;;;;;6128606;28;20043;-79
2023/10/01 04:29:44;;;;;;;23.95;7.72;;;;;;;;;;6140858;28;20051;-79
2023/10/01 04:32:47;;;;;;;15.65;6.75;;;;;;;;;;6184293;28;20050;-80
2023/10/01 04:35:58;;;;;;;15.10;6.10;;;;;;;;;;6153700;28;20151;-80
2023/10/01 04:39:00;;;;;;;15.95;6.50;;;;;;;;;;6149963;28;20051;-80
2023/10/01 04:42:03;;;;;;;11.57;5.57;;;;;;;;;;6164093;28;20039;-80
2023/10/01 04:45:22;;;;;;;13.48;6.45;;;;;;;;;;6155671;28;20042;-79
2023/10/01 04:48:24;;;;;;;18.48;6.90;;;;;;;;;;6128823;28;20051;-79
2023/10/01 04:51:44;;;;;;;19.10;7.18;;;;;;;;;;6145560;28;20059;-79
2023/10/01 04:54:49;;;;;;;15.40;7.07;;;;;;;;;;6143794;28;20145;-79
2023/10/01 04:57:52;;;;;;;15.43;6.32;;;;;;;;;;6109614;28;20122;-80
2023/10/01 05:00:55;;;;;;;15.25;7.03;;;;;;;;;;6137431;28;20430;-80
2023/10/01 05:03:56;;;;;;;14.80;7.22;;;;;;;;;;6133443;28;20138;-80
2023/10/01 05:07:04;;;;;;;10.90;5.20;;;;;;;;;;6124275;28;20099;-80
2023/10/01 05:10:08;;;;;;;9.73;4.88;;;;;;;;;;6150373;28;20054;-80
2023/10/01 05:13:10;;;;;;;11.07;5.57;;;;;;;;;;6138032;28;20045;-82
2023/10/01 05:16:12;;;;;;;11.38;5.15;;;;;;;;;;6156866;28;20569;-81
2023/10/01 05:19:14;;;;;;;10.05;5.05;;;;;;;;;;6168040;28;20043;-80
2023/10/01 05:22:17;;;;;;;9.98;5.25;;;;;;;;;;6151914;28;20074;-81
2023/10/01 05:25:18;;;;;;;8.88;4.85;;;;;;;;;;6165606;28;20054;-81
2023/10/01 05:28:23;;;;;;;8.38;4.88;;;;;;;;;;6158450;28;20046;-81
2023/10/01 05:31:25;;;;;;;13.10;5.90;;;;;;;;;;6158886;28;20046;-81
2023/10/01 05:34:28;;;;;;;9.80;5.00;;;;;;;;;;6166401;28;20130;-81
2023/10/01 05:37:36;;;;;;;12.30;5.63;;;;;;;;;;6127183;28;20732;-81
2023/10/01 05:40:40;;;;;;;13.07;5.55;;;;;;;;;;6147285;28;20043;-82
2023/10/01 05:43:43;;;;;;;9.40;5.20;;;;;;;;;;6143050;28;20393;-81
2023/10/01 05:46:46;;;;;;;12.10;5.78;;;;;;;;;;6142616;28;20042;-80
2023/10/01 05:49:53;;;;;;;10.57;5.63;;;;;;;;;;6153090;28;20043;-82
2023/10/01 05:52:55;;;;;;;14.63;6.15;;;;;;;;;;6148873;28;20050;-81
2023/10/01 05:56:11;;;;;;;11.43;5.32;;;;;;;;;;6151448;28;20055;-81
2023/10/01 05:59:14;;;;;;;11.82;5.60;;;;;;;;;;6150241;28;20039;-82
2023/10/01 06:02:31;;;;;;;;;;;;;;;;;;6157120;28;20085;-82
2023/10/01 06:05:43;;;;;;;11.57;5.15;;;;;;;;;;6152788;28;19930;-82
2023/10/01 06:08:46;;;;;;;10.93;5.00;;;;;;;;;;6143538;28;20046;-81
2023/10/01 06:12:03;;;;;;;10.68;5.07;;;;;;;;;;6158487;28;20046;-81
2023/10/01 06:15:11;;;;;;;11.45;5.60;;;;;;;;;;6156716;28;20046;-83
2023/10/01 06:18:14;;;;;;;10.40;4.70;;;;;;;;;;6174779;28;20049;-81
2023/10/01 06:21:20;;;;;;;11.63;5.22;;;;;;;;;;6158623;28;20053;-81
2023/10/01 06:24:22;;;;;;;12.43;5.18;;;;;;;;;;6146481;28;20047;-82
2023/10/01 06:27:25;;;;;;;12.38;5.28;;;;;;;;;;6168770;28;20054;-81
2023/10/01 06:30:27;;;;;;;;;;;;;;;;;;6145843;28;20424;-81
2023/10/01 06:33:29;;;;;;;10.52;5.30;;;;;;;;;;6166450;28;19933;-82
2023/10/01 06:36:31;;;;;;;10.18;5.05;;;;;;;;;;6160115;28;20039;-82
2023/10/01 06:39:35;;;;;;;11.10;4.47;;;;;;;;;;6169113;28;20047;-81
2023/10/01 06:42:40;;;;;;;10.82;5.30;;;;;;;;;;6166391;28;20045;-81
2023/10/01 06:45:44;;;;;;;10.65;4.90;;;;;;;;;;6152841;28;20043;-82
2023/10/01 06:48:50;;;;;;;9.77;4.70;;;;;;;;;;6168969;28;20408;-81
2023/10/01 06:51:52;;;;;;;9.65;4.93;;;;;;;;;;6141881;28;20040;-81
2023/10/01 06:55:01;;;;;;;7.32;4.53;;;;;;;;;;6145434;28;20047;-81
2023/10/01 06:58:06;;;;;;;12.63;5.95;;;;;;;;;;6200227;23;20184;-88
2023/10/01 07:01:34;;;;;;;9.32;4.82;;;;;;;;;;6153089;28;20039;-87
2023/10/01 07:04:32;;;;;;;8.05;4.45;;;;;;;;;;6161016;28;20061;-88
2023/10/01 07:07:35;;;;;;;10.88;5.50;;;;;;;;;;6169130;28;20054;-87
2023/10/01 07:10:37;;;;;;;8.80;5.72;;;;;;;;;;6153765;28;20057;-88
2023/10/01 07:13:42;;;;;;;10.55;6.20;;;;;;;;;;6165903;28;20173;-89
2023/10/01 07:16:47;;;;;;;8.98;5.30;;;;;;;;;;6146153;28;20444;-90
2023/10/01 07:20:00;;;;;;;6.15;4.05;;;;;;;;;;6121164;28;20133;-89
2023/10/01 07:23:06;;;;;;;6.88;4.15;;;;;;;;;;6136634;28;20126;-89
2023/10/01 07:26:12;;;;;;;7.50;3.63;;;;;;;;;;6143397;28;20123;-90
2023/10/01 07:29:14;;;;;;;6.78;4.15;;;;;;;;;;6146571;28;20084;-89
2023/10/01 07:32:16;;;;;;;6.15;4.10;;;;;;;;;;6145224;28;20050;-88
2023/10/01 07:35:20;;;;;;;7.25;4.43;;;;;;;;;;6136295;28;20207;-89
2023/10/01 07:38:22;;;;;;;7.25;4.10;;;;;;;;;;6146246;28;20127;-90
2023/10/01 07:41:26;;;;;;;7.10;4.00;;;;;;;;;;6134114;28;20047;-87
2023/10/01 07:44:28;;;;;;;6.03;3.80;;;;;;;;;;6142696;28;20057;-87
2023/10/01 07:47:32;;;;;;;6.45;3.78;;;;;;;;;;6140145;28;20065;-86
2023/10/01 07:50:35;;;;;;;7.35;4.22;;;;;;;;;;6153912;28;20091;-87
2023/10/01 07:53:42;;;;;;;6.07;3.83;;;;;;;;;;6164900;28;20269;-86
2023/10/01 07:56:56;;;;;;;9.35;4.00;;;;;;;;;;6156082;28;20110;-86
2023/10/01 08:00:00;;;;;;;5.80;3.90;;;;;;;;;;6173751;28;20529;-86
2023/10/01 08:06:29;;;;;;;8.60;4.07;;;;;;;;;;6163589;28;20054;-86
2023/10/01 08:09:32;;;;;;;6.65;4.20;;;;;;;;;;6158300;28;20501;-86
2023/10/01 08:15:57;;;;;;;7.78;4.32;;;;;;;;;;6163710;28;20050;-87
2023/10/01 08:19:05;;;;;;;8.32;4.20;;;;;;;;;;6163287;28;20192;-86
2023/10/01 08:22:43;;;;;;;6.28;3.92;;;;;;;;;;6164186;28;20054;-88
2023/10/01 08:25:51;;;;;;;6.85;4.18;;;;;;;;;;6152089;28;20308;-87
2023/10/01 08:28:57;;;;;;;7.82;4.40;;;;;;;;;;6139231;28;20566;-88
2023/10/01 08:32:08;;;;;;;6.28;4.03;;;;;;;;;;6156380;28;20556;-87
2023/10/01 08:35:18;;;;;;;8.20;4.32;;;;;;;;;;6164722;28;20074;-88
2023/10/01 08:38:20;;;;;;;6.38;3.55;;;;;;;;;;6147995;28;20493;-83
2023/10/01 08:41:35;;;;;;;6.72;4.00;;;;;;;;;;6162106;28;20047;-83
2023/10/01 08:44:46;;;;;;;6.65;4.05;;;;;;;;;;6149725;28;20039;-83
2023/10/01 08:47:49;;;;;;;7.00;3.80;;;;;;;;;;6180272;28;20106;-87
2023/10/01 08:50:51;;;;;;;6.57;3.95;;;;;;;;;;6166366;28;20496;-87
2023/10/01 08:53:53;;;;;;;6.07;4.03;;;;;;;;;;6160585;28;20425;-84
2023/10/01 08:56:57;;;;;;;5.60;3.58;;;;;;;;;;6156646;28;20046;-84
2023/10/01 09:00:00;;;;;;;7.38;4.28;;;;;;;;;;6166506;28;20413;-86
2023/10/01 09:03:10;;;;;;;;;;;;;;;;;;6173889;28;20061;-81
2023/10/01 09:06:28;;;;;;;6.93;4.03;;;;;;;;;;6162451;28;20419;-80
2023/10/01 09:09:51;;;;;;;6.28;4.07;;;;;;;;;;6172338;28;20117;-83
2023/10/01 09:13:03;;;;;;;6.53;4.07;;;;;;;;;;6163901;28;20047;-83
2023/10/01 09:16:12;;;;;;;6.60;3.90;;;;;;;;;;6169625;28;20063;-82
2023/10/01 09:19:30;;;;;;;6.13;3.55;;;;;;;;;;6178233;28;20047;-81
2023/10/01 09:25:39;;;;;;;5.32;3.45;;;;;;;;;;6156393;28;20125;-82
2023/10/01 09:28:43;;;;;;;5.53;3.33;;;;;;;;;;6162655;28;20058;-83
2023/10/01 09:31:52;;;;;;;5.95;3.63;;;;;;;;;;6161796;28;20055;-81
2023/10/01 09:34:58;;;;;;;6.00;3.58;;;;;;;;;;6159090;28;20050;-84
2023/10/01 09:38:10;;;;;;;7.35;4.32;;;;;;;;;;6166882;28;20055;-82
2023/10/01 09:41:19;;;;;;;6.32;3.58;;;;;;;;;;6170917;28;20097;-82
2023/10/01 09:44:23;;;;;;;7.80;4.40;;;;;;;;;;6169540;28;20416;-81
2023/10/01 09:47:25;;;;;;;7.53;4.30;;;;;;;;;;6185364;28;20050;-82
2023/10/01 09:50:27;;;;;;;17.73;11.18;;;;;;;;;;6169721;28;20043;-85
2023/10/01 09:53:36;;;;;;;16.40;7.68;;;;;;;;;;6169785;28;20457;-82
2023/10/01 09:59:46;;;;;;;6.45;3.55;;;;;;;;;;6170065;28;20113;-80
2023/10/01 10:02:52;;;;;;;6.78;3.95;;;;;;;;;;6162303;28;20058;-81
2023/10/01 10:05:54;;;;;;;7.32;4.15;;;;;;;;;;6158784;28;20090;-80
2023/10/01 10:09:03;;;;;;;9.85;4.32;;;;;;;;;;6150606;28;20536;-81
2023/10/01 10:12:07;;;;;;;6.63;3.63;;;;;;;;;;6139283;28;20054;-81
2023/10/01 10:15:16;;;;;;;8.40;3.72;;;;;;;;;;6151863;28;20054;-81
2023/10/01 10:18:18;;;;;;;6.63;3.50;;;;;;;;;;6150541;28;20043;-80
2023/10/01 10:21:20;;;;;;;6.53;3.67;;;;;;;;;;6151617;28;20043;-81
2023/10/01 10:24:28;;;;;;;8.43;4.03;;;;;;;;;;6164345;28;20353;-80
2023/10/01 10:27:33;;;;;;;7.47;3.75;;;;;;;;;;6151312;28;20436;-80
2023/10/01 10:30:40;;;;;;;7.63;3.78;;;;;;;;;;6156848;28;20043;-81
2023/10/01 10:34:19;;;;;;;9.27;4.15;;;;;;;;;;6180679;28;20329;-79
2023/10/01 10:37:36;;;;;;;8.30;3.60;;;;;;;;;;6167269;28;20066;-81
2023/10/01 10:41:07;;;;;;;10.57;4.30;;;;;;;;;;6160041;28;20490;-81
2023/10/01 10:44:09;;;;;;;10.75;4.40;;;;;;;;;;6178039;28;20046;-81
2023/10/01 10:47:11;;;;;;;12.07;4.45;;;;;;;;;;6164455;28;20093;-81
2023/10/01 10:50:15;;;;;;;10.57;4.45;;;;;;;;;;6156849;28;20047;-81
2023/10/01 10:53:21;;;;;;;9.43;3.90;;;;;;;;;;6142943;28;20062;-81
2023/10/01 10:56:35;;;;;;;10.32;4.03;;;;;;;;;;6156921;28;20046;-79
2023/10/01 10:59:37;;;;;;;6.97;4.05;;;;;;;;;;6157440;28;20379;-81
2023/10/01 11:02:42;;;;;;;8.00;4.20;;;;;;;;;;6156332;28;20060;-81
2023/10/01 11:05:50;;;;;;;9.52;4.53;;;;;;;;;;6162715;28;20618;-80
2023/10/01 11:08:53;;;;;;;9.07;4.75;;;;;;;;;;6177285;28;20126;-79
2023/10/01 11:12:05;;;;;;;11.35;4.78;;;;;;;;;;6141583;28;20297;-79
2023/10/01 11:15:23;;;;;;;9.20;4.47;;;;;;;;;;6180953;28;20047;-80
2023/10/01 11:18:26;;;;;;;10.32;5.13;;;;;;;;;;6177932;28;20055;-81
2023/10/01 11:21:31;;;;;;;10.63;5.38;;;;;;;;;;6152508;28;20046;-81
2023/10/01 11:24:41;;;;;;;10.98;5.20;;;;;;;;;;6161261;28;20070;-79
2023/10/01 11:27:53;;;;;;;10.02;5.07;;;;;;;;;;6157475;28;20420;-82
2023/10/01 11:30:57;;;;;;;9.23;4.60;;;;;;;;;;6168362;28;20057;-82
2023/10/01 11:34:21;;;;;;;10.52;4.70;;;;;;;;;;6175988;28;20067;-80
2023/10/01 11:37:27;;;;;;;12.05;5.30;;;;;;;;;;6165742;28;20124;-84
2023/10/01 11:41:06;;;;;;;12.00;4.97;;;;;;;;;;6180544;28;20054;-82
2023/10/01 11:44:01;;;;;;;11.82;5.32;;;;;;;;;;6159887;28;20065;-81
2023/10/01 11:47:02;;;;;;;9.15;4.95;;;;;;;;;;6164602;28;20070;-81
2023/10/01 11:50:09;;;;;;;12.73;5.30;;;;;;;;;;6163483;28;20155;-80
2023/10/01 11:53:15;;;;;;;10.02;4.78;;;;;;;;;;6160962;28;20039;-81
2023/10/01 11:56:17;;;;;;;11.32;6.00;;;;;;;;;;6121237;28;20107;-80
2023/10/01 11:59:20;;;;;;;11.43;5.43;;;;;;;;;;6141451;28;20051;-82
2023/10/01 12:02:26;;;;;;;10.80;4.80;;;;;;;;;;6168513;28;20057;-81
2023/10/01 12:05:38;;;;;;;10.52;5.13;;;;;;;;;;6154745;28;20058;-83
2023/10/01 12:08:47;;;;;;;9.48;4.88;;;;;;;;;;6176865;28;20107;-81
2023/10/01 12:12:05;;;;;;;11.55;5.25;;;;;;;;;;6158915;28;20053;-82
2023/10/01 12:18:36;;;;;;;11.30;5.07;;;;;;;;;;6168653;28;20042;-83
2023/10/01 12:21:38;;;;;;;12.85;6.03;;;;;;;;;;6167671;28;20047;-83
2023/10/01 12:24:40;;;;;;;13.27;5.28;;;;;;;;;;6164980;28;20090;-83
2023/10/01 12:27:42;;;;;;;12.77;6.00;;;;;;;;;;6165940;28;20074;-82
2023/10/01 12:30:57;;;;;;;11.48;5.28;;;;;;;;;;6172631;28;20031;-83
2023/10/01 12:34:00;;;;;;;11.48;5.35;;;;;;;;;;6164526;28;20058;-82
2023/10/01 12:37:07;;;;;;;11.67;5.60;;;;;;;;;;6183178;28;20039;-83
2023/10/01 12:40:16;;;;;;;13.10;5.75;;;;;;;;;;6186614;28;20163;-82
2023/10/01 12:43:39;;;;;;;15.40;6.43;;;;;;;;;;6169560;28;20245;-83
2023/10/01 12:46:51;;;;;;;12.70;6.28;;;;;;;;;;6166820;28;20061;-82
2023/10/01 12:49:58;;;;;;;12.93;6.10;;;;;;;;;;6166762;28;20043;-82
2023/10/01 12:56:43;;;;;;;13.18;6.05;;;;;;;;;;6165410;28;20412;-82
2023/10/01 12:59:44;;;;;;;11.80;5.68;;;;;;;;;;6173297;28;20850;-82
2023/10/01 13:02:48;;;;;;;12.10;6.15;;;;;;;;;;6185202;28;20133;-81
2023/10/01 13:05:52;;;;;;;21.48;6.68;;;;;;;;;;6168336;28;20058;-82
2023/10/01 13:08:55;;;;;;;11.63;6.30;;;;;;;;;;6168075;28;20107;-83
2023/10/01 13:12:06;;;;;;;13.82;5.80;;;;;;;;;;6174975;28;20074;-84
2023/10/01 13:15:15;;;;;;;11.75;5.95;;;;;;;;;;6173617;28;20053;-83
2023/10/01 13:18:18;;;;;;;11.70;5.63;;;;;;;;;;6155497;28;20054;-85
2023/10/01 13:21:27;;;;;;;10.15;5.30;;;;;;;;;;6157711;28;20043;-84
2023/10/01 13:24:28;;;;;;;11.32;5.65;;;;;;;;;;6145325;28;20062;-84
2023/10/01 13:27:30;;;;;;;11.90;5.33;;;;;;;;;;6140186;28;20055;-83
2023/10/01 13:34:09;;;;;;;12.52;5.95;;;;;;;;;;6144118;28;20044;-82
2023/10/01 13:40:32;;;;;;;13.48;5.57;;;;;;;;;;6145146;28;20309;-85
2023/10/01 14:10:21;;;;;;;12.65;6.10;;;;;;;;;;6174805;28;20051;-82
2023/10/01 14:13:29;;;;;;;13.57;5.88;;;;;;;;;;6163388;28;20053;-82
2023/10/01 14:16:31;;;;;;;12.88;6.60;;;;;;;;;;6161545;28;20050;-82
2023/10/01 14:19:38;;;;;;;13.90;5.97;;;;;;;;;;6155104;28;20054;-80
2023/10/01 14:22:49;;;;;;;11.65;5.55;;;;;;;;;;6161836;28;20054;-82
2023/10/01 14:25:52;;;;;;;12.43;5.87;;;;;;;;;;6171396;28;20053;-80
2023/10/01 14:28:55;;;;;;;13.27;5.93;;;;;;;;;;6151941;28;20049;-82
2023/10/01 14:32:09;;;;;;;13.48;6.32;;;;;;;;;;6154548;28;20089;-82
2023/10/01 14:35:14;;;;;;;10.25;5.47;;;;;;;;;;6167463;28;20054;-82
2023/10/01 14:38:16;;;;;;;10.50;5.25;;;;;;;;;;6144336;28;20053;-85
2023/10/01 14:41:18;;;;;;;14.23;6.40;;;;;;;;;;6181439;28;20058;-83
2023/10/01 14:44:24;;;;;;;11.93;6.35;;;;;;;;;;6169137;28;20130;-85
2023/10/01 14:47:28;;;;;;;13.27;6.03;;;;;;;;;;6161939;28;20121;-84
2023/10/01 14:50:30;;;;;;;13.80;6.00;;;;;;;;;;6160334;28;20047;-85
2023/10/01 14:53:38;;;;;;;11.43;5.97;;;;;;;;;;6157602;28;20059;-85
2023/10/01 14:56:40;;;;;;;13.00;6.25;;;;;;;;;;6152978;28;20142;-88
2023/10/01 14:59:43;;;;;;;13.00;5.87;;;;;;;;;;6176535;28;20034;-88
2023/10/01 15:02:45;;;;;;;13.38;6.03;;;;;;;;;;6145393;28;20515;-86
2023/10/01 15:05:47;;;;;;;14.35;6.20;;;;;;;;;;6163380;28;20051;-88
2023/10/01 15:08:50;;;;;;;11.13;5.28;;;;;;;;;;6179858;28;20547;-88
2023/10/01 15:11:54;;;;;;;;;;;;;;;;;;6157634;28;20057;-88
2023/10/01 15:14:56;;;;;;;12.65;6.03;;;;;;;;;;6169079;28;20004;-85
2023/10/01 15:18:18;;;;;;;11.68;5.68;;;;;;;;;;6129823;28;20056;-84
2023/10/01 15:21:20;;;;;;;12.38;5.65;;;;;;;;;;6146822;28;20089;-84
2023/10/01 15:24:21;;;;;;;12.60;6.00;;;;;;;;;;6146645;28;20589;-86
2023/10/01 15:27:23;;;;;;;12.40;6.10;;;;;;;;;;6134506;28;20054;-86
2023/10/01 15:30:34;;;;;;;12.80;6.07;;;;;;;;;;6131443;28;20462;-85
2023/10/01 15:33:36;;;;;;;12.05;5.80;;;;;;;;;;6164577;28;20058;-84
2023/10/01 15:39:47;;;;;;;13.85;6.18;;;;;;;;;;6163300;28;20465;-87
2023/10/01 15:42:53;;;;;;;13.47;6.67;;;;;;;;;;6163823;28;20050;-88
2023/10/01 15:46:11;;;;;;;12.77;6.10;;;;;;;;;;6184357;28;20244;-90
2023/10/01 15:49:19;;;;;;;12.23;5.95;;;;;;;;;;6200497;28;20039;-89
2023/10/01 15:52:36;;;;;;;12.43;5.75;;;;;;;;;;6198593;28;20098;-87
2023/10/01 15:55:55;;;;;;;11.80;6.10;;;;;;;;;;6176289;28;20043;-91
2023/10/01 15:58:57;;;;;;;13.48;6.15;;;;;;;;;;6183707;28;20035;-89
2023/10/01 16:02:06;;;;;;;13.25;5.97;;;;;;;;;;6162020;28;20065;-87
2023/10/01 16:05:15;;;;;;;11.88;6.03;;;;;;;;;;6149854;28;20047;-89
2023/10/01 16:08:20;;;;;;;14.43;6.80;;;;;;;;;;6146830;28;20043;-90
2023/10/01 16:11:23;;;;;;;12.43;6.13;;;;;;;;;;6158976;28;20053;-88
2023/10/01 16:14:26;;;;;;;12.83;5.70;;;;;;;;;;6140746;28;20046;-85
2023/10/01 16:17:31;;;;;;;11.80;5.97;;;;;;;;;;6119878;28;20055;-86
2023/10/01 16:20:38;;;;;;;11.77;5.38;;;;;;;;;;6140376;28;20134;-84
2023/10/01 16:23:48;;;;;;;13.23;6.28;;;;;;;;;;6153215;28;20047;-85
2023/10/01 16:26:50;;;;;;;21.30;13.35;;;;;;;;;;6170537;28;20134;-85
2023/10/01 16:30:11;;;;;;;18.47;10.93;;;;;;;;;;6156328;28;20047;-85
2023/10/01 16:33:17;;;;;;;26.08;16.77;;;;;;;;;;6169080;28;20055;-85
2023/10/01 16:36:20;;;;;;;12.82;7.95;;;;;;;;;;6163092;28;20049;-83
2023/10/01 16:39:22;;;;;;;11.35;5.50;;;;;;;;;;6156681;28;20059;-84
2023/10/01 16:42:25;;;;;;;14.17;6.10;;;;;;;;;;6156744;28;20198;-87
2023/10/01 16:45:30;;;;;;;;;;;;;;;;;;6163134;28;20050;-86
2023/10/01 16:48:33;;;;;;;13.38;6.65;;;;;;;;;;6158275;28;19950;-87
2023/10/01 16:51:35;;;;;;;16.33;8.27;;;;;;;;;;6149455;28;20497;-86
2023/10/01 16:54:38;;;;;;;;;;;;;;;;;;6131824;28;20047;-85
2023/10/01 16:57:42;;;;;;;16.15;6.28;;;;;;;;;;6149755;28;19926;-85
2023/10/01 17:00:44;;;;;;;14.13;6.30;;;;;;;;;;6162300;28;20065;-86
2023/10/01 17:03:50;;;;;;;13.68;6.00;;;;;;;;;;6156026;28;20047;-86
2023/10/01 17:06:55;;;;;;;12.63;6.03;;;;;;;;;;6145263;28;20047;-85
2023/10/01 17:10:05;;;;;;;14.13;6.47;;;;;;;;;;6167153;28;20433;-87
2023/10/01 17:13:14;;;;;;;14.15;6.35;;;;;;;;;;6157419;28;20043;-86
2023/10/01 17:16:20;;;;;;;12.20;6.07;;;;;;;;;;6154574;28;20051;-86
2023/10/01 17:19:29;;;;;;;15.60;5.88;;;;;;;;;;6170228;28;20043;-86
2023/10/01 17:22:31;;;;;;;13.23;5.90;;;;;;;;;;6158564;28;20578;-85
2023/10/01 17:25:34;;;;;;;14.75;6.05;;;;;;;;;;6152309;28;20190;-85
2023/10/01 17:28:45;;;;;;;15.10;5.97;;;;;;;;;;6149701;28;20057;-89
2023/10/01 17:31:49;;;;;;;12.38;5.55;;;;;;;;;;6181967;28;20047;-88
2023/10/01 17:34:52;;;;;;;14.27;5.68;;;;;;;;;;6174897;28;20059;-88
2023/10/01 17:38:09;;;;;;;9.98;4.97;;;;;;;;;;6248512;27;1250078;-78
2023/10/01 17:41:21;;;;;;;15.90;6.35;;;;;;;;;;6302974;28;20052;-78
2023/10/01 17:44:26;;;;;;;13.95;6.15;;;;;;;;;;6304017;28;20048;-79
2023/10/01 17:47:29;;;;;;;13.80;6.07;;;;;;;;;;6305692;28;20074;-79
2023/10/01 17:50:32;;;;;;;14.38;5.65;;;;;;;;;;6301057;28;20055;-80
2023/10/01 17:53:34;;;;;;;15.40;5.90;;;;;;;;;;6298367;28;20063;-80
2023/10/01 17:56:37;;;;;;;13.55;5.88;;;;;;;;;;6307985;28;20127;-80
2023/10/01 17:59:39;;;;;;;13.68;6.38;;;;;;;;;;6311594;28;20112;-80
2023/10/01 18:02:41;;;;;;;13.73;6.00;;;;;;;;;;6313385;28;20037;-80
2023/10/01 18:05:58;;;;;;;;;;;;;;;;;;6306941;28;20040;-78
2023/10/01 18:09:13;;;;;;;15.18;6.25;;;;;;;;;;6300089;28;19939;-77
2023/10/01 18:12:27;;;;;;;12.30;6.53;;;;;;;;;;6301336;28;20070;-78
2023/10/01 18:15:33;;;;;;;13.73;6.25;;;;;;;;;;6307620;28;20048;-79
2023/10/01 18:18:35;;;;;;;10.32;5.70;;;;;;;;;;6296043;28;20052;-79
2023/10/01 18:21:38;;;;;;;14.50;6.43;;;;;;;;;;6297272;28;20041;-79
2023/10/01 18:24:41;;;;;;;12.95;6.22;;;;;;;;;;6308747;28;20045;-82
2023/10/01 18:27:54;;;;;;;13.65;6.57;;;;;;;;;;6300746;28;20421;-79
2023/10/01 18:30:58;;;;;;;15.48;6.43;;;;;;;;;;6305094;28;20055;-81
2023/10/01 18:34:00;;;;;;;12.85;5.85;;;;;;;;;;6295891;28;20043;-79
2023/10/01 18:37:03;;;;;;;14.07;6.20;;;;;;;;;;6294117;28;20055;-77
2023/10/01 18:40:13;;;;;;;13.23;6.00;;;;;;;;;;6302230;28;20052;-79
2023/10/01 18:43:17;;;;;;;14.82;6.25;;;;;;;;;;6293832;28;20037;-81
2023/10/01 18:46:22;;;;;;;14.27;6.80;;;;;;;;;;6305113;28;20040;-80
2023/10/01 18:49:26;;;;;;;13.75;6.93;;;;;;;;;;6280095;28;20040;-81
2023/10/01 18:52:27;;;;;;;15.10;7.72;;;;;;;;;;6272897;28;20395;-81
2023/10/01 18:55:30;;;;;;;17.73;8.50;;;;;;;;;;6273412;28;20502;-78
2023/10/01 18:58:34;;;;;;;15.07;8.20;;;;;;;;;;6266244;28;20490;-77
2023/10/01 19:01:37;;;;;;;14.45;6.75;;;;;;;;;;6282030;28;20159;-77
2023/10/01 19:04:39;;;;;;;15.18;5.93;;;;;;;;;;6274177;28;20044;-79
2023/10/01 19:07:42;;;;;;;10.98;4.88;;;;;;;;;;6270670;28;20049;-77
2023/10/01 19:10:45;;;;;;;12.85;5.80;;;;;;;;;;6283053;28;20512;-79
2023/10/01 19:13:50;;;;;;;11.48;6.05;;;;;;;;;;6280841;28;20082;-77
2023/10/01 19:16:55;;;;;;;14.70;6.53;;;;;;;;;;6285988;28;20114;-80
2023/10/01 19:19:57;;;;;;;21.45;12.70;;;;;;;;;;6274738;28;20128;-79
2023/10/01 19:23:00;;;;;;;16.23;7.43;;;;;;;;;;6278263;28;20494;-82
2023/10/01 19:26:04;;;;;;;15.45;6.72;;;;;;;;;;6271209;28;21418;-80
2023/10/01 19:29:12;;;;;;;14.38;6.15;;;;;;;;;;6283796;28;20041;-77
2023/10/01 19:32:14;;;;;;;13.90;6.32;;;;;;;;;;6284062;28;20060;-77
2023/10/01 19:35:23;;;;;;;17.15;7.03;;;;;;;;;;6272856;28;20045;-77
2023/10/01 19:38:24;;;;;;;11.50;5.07;;;;;;;;;;6268970;28;20472;-79
2023/10/01 19:41:26;;;;;;;13.75;6.13;;;;;;;;;;6273553;28;20045;-77
2023/10/01 19:44:30;;;;;;;12.30;5.50;;;;;;;;;;6271475;28;20296;-77
2023/10/01 19:47:39;;;;;;;12.85;6.20;;;;;;;;;;6272244;28;20036;-79